createdAt,value
2022-12-11T00:00:44.043Z,27.40
2022-12-11T00:03:15.661Z,27.63
2022-12-11T00:05:43.466Z,27.67
2022-12-11T00:08:09.898Z,27.10
2022-12-11T00:10:38.050Z,26.40
2022-12-11T00:13:04.963Z,27.73
2022-12-11T00:15:31.467Z,30.13
2022-12-11T00:17:57.814Z,26.33
2022-12-11T00:20:24.290Z,26.33
2022-12-11T00:22:50.609Z,28.13
2022-12-11T00:25:17.035Z,27.33
2022-12-11T00:27:46.058Z,29.53
2022-12-11T00:30:13.010Z,28.40
2022-12-11T00:32:39.349Z,25.17
2022-12-11T00:35:05.970Z,28.20
2022-12-11T00:37:32.398Z,27.77
2022-12-11T00:39:58.847Z,32.17
2022-12-11T00:42:25.136Z,31.53
2022-12-11T00:44:51.553Z,31.20
2022-12-11T00:47:17.841Z,29.23
2022-12-11T00:49:49.581Z,30.07
2022-12-11T00:52:17.671Z,30.53
2022-12-11T00:54:46.487Z,31.40
2022-12-11T00:57:12.768Z,31.70
2022-12-11T00:59:39.337Z,31.20
2022-12-11T01:02:05.634Z,30.17
2022-12-11T01:04:32.153Z,26.67
2022-12-11T01:06:58.499Z,30.20
2022-12-11T01:09:43.666Z,30.77
2022-12-11T01:12:10.045Z,30.27
2022-12-11T01:14:36.421Z,28.03
2022-12-11T01:17:02.805Z,30.40
2022-12-11T01:19:29.358Z,34.70
2022-12-11T01:21:55.772Z,30.67
2022-12-11T01:24:22.354Z,31.70
2022-12-11T01:26:48.685Z,30.70
2022-12-11T01:29:15.062Z,28.37
2022-12-11T01:31:41.455Z,27.67
2022-12-11T01:34:07.788Z,27.83
2022-12-11T01:36:34.081Z,31.20
2022-12-11T01:39:00.641Z,32.23
2022-12-11T01:41:27.077Z,31.83
2022-12-11T01:44:28.594Z,29.37
2022-12-11T01:46:54.865Z,32.83
2022-12-11T01:49:25.228Z,36.47
2022-12-11T01:52:15.192Z,29.70
2022-12-11T01:54:43.431Z,39.37
2022-12-11T01:57:12.335Z,33.00
2022-12-11T01:59:41.022Z,30.03
2022-12-11T02:02:22.431Z,32.57
2022-12-11T02:04:49.333Z,32.13
2022-12-11T02:07:15.757Z,33.43
2022-12-11T02:09:45.775Z,32.33
2022-12-11T02:12:30.137Z,34.00
2022-12-11T02:15:11.994Z,33.60
2022-12-11T02:18:07.419Z,27.33
2022-12-11T02:20:37.557Z,35.33
2022-12-11T02:23:24.985Z,32.83
2022-12-11T02:26:00.182Z,29.97
2022-12-11T02:28:41.199Z,36.43
2022-12-11T02:31:19.279Z,33.63
2022-12-11T02:34:15.364Z,33.53
2022-12-11T02:36:45.349Z,35.23
2022-12-11T02:39:14.933Z,36.60
2022-12-11T02:41:46.873Z,36.67
2022-12-11T02:44:15.903Z,32.77
2022-12-11T02:46:44.218Z,35.23
2022-12-11T02:49:12.570Z,35.03
2022-12-11T02:51:43.418Z,37.53
2022-12-11T02:54:18.039Z,35.73
2022-12-11T02:56:56.418Z,39.97
2022-12-11T02:59:45.352Z,40.50
2022-12-11T03:02:13.703Z,34.10
2022-12-11T03:04:41.078Z,37.33
2022-12-11T03:07:12.209Z,36.43
2022-12-11T03:09:40.308Z,35.30
2022-12-11T03:12:09.888Z,36.60
2022-12-11T03:14:38.403Z,35.97
2022-12-11T03:17:23.870Z,37.20
2022-12-11T03:19:58.210Z,42.87
2022-12-11T03:22:33.798Z,38.90
2022-12-11T03:25:05.200Z,38.00
2022-12-11T03:27:42.212Z,34.90
2022-12-11T03:30:14.115Z,35.27
2022-12-11T03:32:58.008Z,38.63
2022-12-11T03:35:35.554Z,36.97
2022-12-11T03:38:07.566Z,37.90
2022-12-11T03:40:36.434Z,41.83
2022-12-11T03:43:04.807Z,34.70
2022-12-11T03:45:33.365Z,37.00
2022-12-11T03:48:01.823Z,36.37
2022-12-11T03:50:31.657Z,38.93
2022-12-11T03:52:58.587Z,37.83
2022-12-11T03:55:26.491Z,37.67
2022-12-11T03:57:52.953Z,35.00
2022-12-11T04:00:21.744Z,37.17
2022-12-11T04:03:11.331Z,37.33
2022-12-11T04:05:48.621Z,32.17
2022-12-11T04:08:16.036Z,35.83
2022-12-11T04:10:43.082Z,32.47
2022-12-11T04:13:10.520Z,38.47
2022-12-11T04:15:38.306Z,37.43
2022-12-11T04:18:23.845Z,38.90
2022-12-11T04:21:12.093Z,33.53
2022-12-11T04:23:56.798Z,37.53
2022-12-11T04:26:23.154Z,38.37
2022-12-11T04:28:50.371Z,37.97
2022-12-11T04:31:21.918Z,37.40
2022-12-11T04:33:48.929Z,38.87
2022-12-11T04:36:15.986Z,33.40
2022-12-11T04:38:42.305Z,35.97
2022-12-11T04:41:12.231Z,32.80
2022-12-11T04:43:39.055Z,36.70
2022-12-11T04:46:20.657Z,33.27
2022-12-11T04:48:51.184Z,39.47
2022-12-11T04:51:20.409Z,32.80
2022-12-11T04:53:46.797Z,39.27
2022-12-11T04:56:15.734Z,33.30
2022-12-11T04:58:43.354Z,41.87
2022-12-11T05:01:13.063Z,34.87
2022-12-11T05:03:40.479Z,36.97
2022-12-11T05:06:08.607Z,34.23
2022-12-11T05:08:36.659Z,36.27
2022-12-11T05:11:05.573Z,38.27
2022-12-11T05:13:32.368Z,33.50
2022-12-11T05:15:59.245Z,41.40
2022-12-11T05:18:30.655Z,36.63
2022-12-11T05:21:01.895Z,34.57
2022-12-11T05:23:29.240Z,37.33
2022-12-11T05:26:01.915Z,39.90
2022-12-11T05:28:30.042Z,31.27
2022-12-11T05:30:57.703Z,36.13
2022-12-11T05:33:24.981Z,32.20
2022-12-11T05:35:51.685Z,33.47
2022-12-11T05:38:18.345Z,31.50
2022-12-11T05:40:45.014Z,33.07
2022-12-11T05:43:11.359Z,32.47
2022-12-11T05:45:38.271Z,35.83
2022-12-11T05:48:04.715Z,31.10
2022-12-11T05:50:30.989Z,32.33
2022-12-11T05:52:57.346Z,30.53
2022-12-11T05:55:23.638Z,26.27
2022-12-11T05:57:49.910Z,27.43
2022-12-11T06:00:16.501Z,33.93
2022-12-11T06:02:43.035Z,35.53
2022-12-11T06:05:09.878Z,31.03
2022-12-11T06:07:36.279Z,31.37
2022-12-11T06:10:02.585Z,29.13
2022-12-11T06:12:29.745Z,34.90
2022-12-11T06:14:56.320Z,31.97
2022-12-11T06:17:22.722Z,34.20
2022-12-11T06:19:49.018Z,36.20
2022-12-11T06:22:15.334Z,34.23
2022-12-11T06:24:41.692Z,30.67
2022-12-11T06:27:08.157Z,32.30
2022-12-11T06:29:34.635Z,32.57
2022-12-11T06:32:01.020Z,30.10
2022-12-11T06:34:27.437Z,32.40
2022-12-11T06:36:53.701Z,34.70
2022-12-11T06:39:20.252Z,35.33
2022-12-11T06:41:46.589Z,36.03
2022-12-11T06:44:12.942Z,36.83
2022-12-11T06:46:39.299Z,32.43
2022-12-11T06:49:05.599Z,34.47
2022-12-11T06:51:32.691Z,31.83
2022-12-11T06:53:59.016Z,33.07
2022-12-11T06:56:25.423Z,32.77
2022-12-11T06:58:52.341Z,30.63
2022-12-11T07:01:23.040Z,33.13
2022-12-11T07:03:52.047Z,32.30
2022-12-11T07:06:18.378Z,30.63
2022-12-11T07:08:45.423Z,32.83
2022-12-11T07:11:14.142Z,29.00
2022-12-11T07:13:42.097Z,32.37
2022-12-11T07:16:12.986Z,31.50
2022-12-11T07:18:43.933Z,29.97
2022-12-11T07:21:14.186Z,35.17
2022-12-11T07:23:40.839Z,32.77
2022-12-11T07:26:09.728Z,32.97
2022-12-11T07:28:36.484Z,36.10
2022-12-11T07:31:07.566Z,29.13
2022-12-11T07:33:34.544Z,31.07
2022-12-11T07:36:04.340Z,35.33
2022-12-11T07:38:30.815Z,36.13
2022-12-11T07:41:01.703Z,33.93
2022-12-11T07:43:28.258Z,33.17
2022-12-11T07:45:54.601Z,38.47
2022-12-11T07:48:20.926Z,37.23
2022-12-11T07:50:47.283Z,36.47
2022-12-11T07:53:13.578Z,35.70
2022-12-11T07:55:39.906Z,33.43
2022-12-11T07:58:06.215Z,34.47
2022-12-11T08:00:32.567Z,34.70
2022-12-11T08:02:58.909Z,32.97
2022-12-11T08:05:25.221Z,38.07
2022-12-11T08:07:51.560Z,37.43
2022-12-11T08:10:18.137Z,34.03
2022-12-11T08:12:44.421Z,34.60
2022-12-11T08:15:11.597Z,31.33
2022-12-11T08:17:40.164Z,32.53
2022-12-11T08:20:08.186Z,34.33
2022-12-11T08:22:35.532Z,34.53
2022-12-11T08:25:02.065Z,34.83
2022-12-11T08:27:30.502Z,32.83
2022-12-11T08:29:56.827Z,35.43
2022-12-11T08:32:23.268Z,37.03
2022-12-11T08:34:51.409Z,33.77
2022-12-11T08:37:17.731Z,33.47
2022-12-11T08:39:44.916Z,33.80
2022-12-11T08:42:11.198Z,37.60
2022-12-11T08:44:37.580Z,38.73
2022-12-11T08:47:03.992Z,33.30
2022-12-11T08:49:34.422Z,36.23
2022-12-11T08:52:01.118Z,39.50
2022-12-11T08:54:27.414Z,37.83
2022-12-11T08:56:57.993Z,44.13
2022-12-11T08:59:25.649Z,42.77
2022-12-11T09:01:52.318Z,41.53
2022-12-11T09:04:18.695Z,37.13
2022-12-11T09:06:44.993Z,38.60
2022-12-11T09:09:11.337Z,40.83
2022-12-11T09:11:37.815Z,46.10
2022-12-11T09:14:07.823Z,51.13
2022-12-11T09:16:37.702Z,40.30
2022-12-11T09:19:04.251Z,42.13
2022-12-11T09:21:30.886Z,35.23
2022-12-11T09:24:00.065Z,35.33
2022-12-11T09:26:27.794Z,37.87
2022-12-11T09:28:54.824Z,39.97
2022-12-11T09:31:24.931Z,30.47
2022-12-11T09:33:56.294Z,32.73
2022-12-11T09:36:23.399Z,33.20
2022-12-11T09:38:49.875Z,34.47
2022-12-11T09:41:21.859Z,30.50
2022-12-11T09:44:12.968Z,33.97
2022-12-11T09:46:40.562Z,33.30
2022-12-11T09:49:24.901Z,28.17
2022-12-11T09:52:05.935Z,34.00
2022-12-11T09:54:32.864Z,34.07
2022-12-11T09:57:29.623Z,32.77
2022-12-11T10:00:13.746Z,33.57
2022-12-11T10:02:54.985Z,34.07
2022-12-11T10:06:02.679Z,37.60
2022-12-11T10:08:38.879Z,38.03
2022-12-11T10:11:30.218Z,38.50
2022-12-11T10:14:25.950Z,35.83
2022-12-11T10:16:57.723Z,43.43
2022-12-11T10:19:29.978Z,36.77
2022-12-11T10:21:57.750Z,37.97
2022-12-11T10:25:10.040Z,34.37
2022-12-11T10:27:34.979Z,34.40
2022-12-11T10:30:15.947Z,37.67
2022-12-11T10:32:53.440Z,33.37
2022-12-11T10:35:33.068Z,32.53
2022-12-11T10:38:12.032Z,30.37
2022-12-11T10:40:42.752Z,35.83
2022-12-11T10:43:09.055Z,38.00
2022-12-11T10:45:36.238Z,48.10
2022-12-11T10:48:13.158Z,45.20
2022-12-11T10:50:39.905Z,47.13
2022-12-11T10:53:06.213Z,41.90
2022-12-11T10:55:45.228Z,39.33
2022-12-11T10:58:24.083Z,39.43
2022-12-11T11:01:13.962Z,41.07
2022-12-11T11:03:58.655Z,40.60
2022-12-11T11:06:26.009Z,34.93
2022-12-11T11:08:55.202Z,32.60
2022-12-11T11:11:34.469Z,41.47
2022-12-11T11:14:18.087Z,30.70
2022-12-11T11:16:46.863Z,34.27
2022-12-11T11:19:27.011Z,31.40
2022-12-11T11:21:56.393Z,32.07
2022-12-11T11:24:53.696Z,33.53
2022-12-11T11:27:45.649Z,34.63
2022-12-11T11:30:56.511Z,31.20
2022-12-11T11:33:24.260Z,33.70
2022-12-11T11:35:53.534Z,31.47
2022-12-11T11:38:23.757Z,33.27
2022-12-11T11:41:15.549Z,33.90
2022-12-11T11:43:54.641Z,36.13
2022-12-11T11:46:46.059Z,35.23
2022-12-11T11:49:28.085Z,38.20
2022-12-11T11:52:08.118Z,33.60
2022-12-11T11:54:39.179Z,32.57
2022-12-11T11:57:32.910Z,39.73
2022-12-11T12:00:31.866Z,37.67
2022-12-11T12:03:10.511Z,34.07
2022-12-11T12:05:50.248Z,39.73
2022-12-11T12:08:25.619Z,34.83
2022-12-11T12:11:01.498Z,36.03
2022-12-11T12:13:50.407Z,36.43
2022-12-11T12:19:41.501Z,38.63
2022-12-11T12:22:35.695Z,34.70
2022-12-11T12:25:30.125Z,37.33
2022-12-11T12:28:03.788Z,32.70
2022-12-11T12:30:40.113Z,36.97
2022-12-11T12:33:34.654Z,32.80
2022-12-11T12:36:26.068Z,30.03
2022-12-11T12:39:21.129Z,36.77
2022-12-11T12:42:07.763Z,27.53
2022-12-11T12:44:47.274Z,31.90
2022-12-11T12:47:17.270Z,38.87
2022-12-11T12:49:49.165Z,35.03
2022-12-11T12:52:17.473Z,36.93
2022-12-11T12:55:07.190Z,35.63
2022-12-11T12:57:34.981Z,34.00
2022-12-11T13:00:01.353Z,35.83
2022-12-11T13:02:28.228Z,37.40
2022-12-11T13:05:07.333Z,37.33
2022-12-11T13:07:33.963Z,36.03
2022-12-11T13:10:29.201Z,35.53
2022-12-11T13:12:56.464Z,37.63
2022-12-11T13:15:41.060Z,38.33
2022-12-11T13:18:32.470Z,37.63
2022-12-11T13:20:59.201Z,37.00
2022-12-11T13:23:32.245Z,40.20
2022-12-11T13:26:04.207Z,38.13
2022-12-11T13:28:45.403Z,35.13
2022-12-11T13:31:14.492Z,32.67
2022-12-11T13:33:49.668Z,37.43
2022-12-11T13:36:24.086Z,36.93
2022-12-11T13:38:55.214Z,35.63
2022-12-11T13:41:22.379Z,35.43
2022-12-11T13:43:50.454Z,35.87
2022-12-11T13:46:25.226Z,35.33
2022-12-11T13:49:00.768Z,34.20
2022-12-11T13:51:30.201Z,34.13
2022-12-11T13:54:23.207Z,41.07
2022-12-11T13:57:15.239Z,45.77
2022-12-11T13:59:46.501Z,38.33
2022-12-11T14:02:22.038Z,40.93
2022-12-11T14:04:51.541Z,36.07
2022-12-11T14:07:26.868Z,37.33
2022-12-11T14:09:59.261Z,38.87
2022-12-11T14:12:25.820Z,39.43
2022-12-11T14:14:56.852Z,40.67
2022-12-11T14:17:26.753Z,36.60
2022-12-11T14:19:54.857Z,42.17
2022-12-11T14:22:24.194Z,36.57
2022-12-11T14:24:53.024Z,38.23
2022-12-11T14:27:20.105Z,37.03
2022-12-11T14:29:46.972Z,41.27
2022-12-11T14:32:20.370Z,38.27
2022-12-11T14:34:49.445Z,42.57
2022-12-11T14:37:17.693Z,34.97
2022-12-11T14:39:55.020Z,38.77
2022-12-11T14:42:31.039Z,40.37
2022-12-11T14:45:13.838Z,38.33
2022-12-11T14:47:43.495Z,37.83
2022-12-11T14:50:19.300Z,38.03
2022-12-11T14:52:58.371Z,40.07
2022-12-11T14:55:32.527Z,32.90
2022-12-11T14:58:03.093Z,42.97
2022-12-11T15:00:32.366Z,43.60
2022-12-11T15:03:02.082Z,35.77
2022-12-11T15:05:29.236Z,37.07
2022-12-11T15:07:59.939Z,37.77
2022-12-11T15:10:35.578Z,40.30
2022-12-11T15:13:03.534Z,40.97
2022-12-11T15:15:32.815Z,38.30
2022-12-11T15:18:02.980Z,36.43
2022-12-11T15:20:30.533Z,45.60
2022-12-11T15:23:01.039Z,42.83
2022-12-11T15:25:29.341Z,40.80
2022-12-11T15:27:59.571Z,38.00
2022-12-11T15:30:31.535Z,37.80
2022-12-11T15:33:09.796Z,36.97
2022-12-11T15:35:38.226Z,37.20
2022-12-11T15:38:04.950Z,38.33
2022-12-11T15:40:31.792Z,33.27
2022-12-11T15:43:02.003Z,31.03
2022-12-11T15:45:28.899Z,30.07
2022-12-11T15:47:55.543Z,31.37
2022-12-11T15:50:26.366Z,27.87
2022-12-11T15:52:54.533Z,29.90
2022-12-11T15:55:22.888Z,30.23
2022-12-11T15:57:54.097Z,28.80
2022-12-11T16:00:21.179Z,29.60
2022-12-11T16:02:48.013Z,28.00
2022-12-11T16:05:14.788Z,28.57
2022-12-11T16:07:41.406Z,30.33
2022-12-11T16:10:13.635Z,29.00
2022-12-11T16:12:39.961Z,27.77
2022-12-11T16:15:06.799Z,31.33
2022-12-11T16:17:33.173Z,32.00
2022-12-11T16:19:59.538Z,31.93
2022-12-11T16:22:25.865Z,29.47
2022-12-11T16:24:55.747Z,31.27
2022-12-11T16:27:23.327Z,29.83
2022-12-11T16:29:49.946Z,35.47
2022-12-11T16:32:16.427Z,32.10
2022-12-11T16:34:42.760Z,34.27
2022-12-11T16:37:15.662Z,34.03
2022-12-11T16:39:42.906Z,29.93
2022-12-11T16:42:09.218Z,30.50
2022-12-11T16:44:39.568Z,31.07
2022-12-11T16:47:08.755Z,30.97
2022-12-11T16:49:35.047Z,30.50
2022-12-11T16:52:01.364Z,37.93
2022-12-11T16:54:27.658Z,34.63
2022-12-11T16:56:53.966Z,34.73
2022-12-11T16:59:20.238Z,37.43
2022-12-11T17:01:46.657Z,36.67
2022-12-11T17:04:12.959Z,36.00
2022-12-11T17:06:39.286Z,38.37
2022-12-11T17:09:05.768Z,36.27
2022-12-11T17:11:32.156Z,35.80
2022-12-11T17:13:59.907Z,35.37
2022-12-11T17:16:29.038Z,35.03
2022-12-11T17:18:55.476Z,40.73
2022-12-11T17:21:22.438Z,36.87
2022-12-11T17:23:49.583Z,41.07
2022-12-11T17:26:16.818Z,39.63
2022-12-11T17:28:43.585Z,38.97
2022-12-11T17:31:14.195Z,38.00
2022-12-11T17:33:40.656Z,41.37
2022-12-11T17:36:08.358Z,36.67
2022-12-11T17:38:34.800Z,37.63
2022-12-11T17:41:06.068Z,38.63
2022-12-11T17:43:32.379Z,41.10
2022-12-11T17:45:58.751Z,36.07
2022-12-11T17:48:25.124Z,36.90
2022-12-11T17:50:52.707Z,39.53
2022-12-11T17:53:21.250Z,39.83
2022-12-11T17:55:48.747Z,39.07
2022-12-11T17:58:21.745Z,39.77
2022-12-11T18:00:51.105Z,38.03
2022-12-11T18:03:18.526Z,39.97
2022-12-11T18:05:47.902Z,39.73
2022-12-11T18:08:16.731Z,41.27
2022-12-11T18:10:43.997Z,39.27
2022-12-11T18:13:10.471Z,36.30
2022-12-11T18:15:37.750Z,34.80
2022-12-11T18:18:04.942Z,40.03
2022-12-11T18:20:33.155Z,38.10
2022-12-11T18:23:00.305Z,41.77
2022-12-11T18:25:27.052Z,41.73
2022-12-11T18:27:55.054Z,39.90
2022-12-11T18:30:23.058Z,36.77
2022-12-11T18:32:49.849Z,36.17
2022-12-11T18:35:16.680Z,40.97
2022-12-11T18:37:43.102Z,42.60
2022-12-11T18:40:11.911Z,37.77
2022-12-11T18:42:38.683Z,36.80
2022-12-11T18:45:06.797Z,38.83
2022-12-11T18:47:33.380Z,43.40
2022-12-11T18:50:05.574Z,42.03
2022-12-11T18:52:33.914Z,36.63
2022-12-11T18:55:00.208Z,37.93
2022-12-11T18:57:26.539Z,34.53
2022-12-11T18:59:53.417Z,38.73
2022-12-11T19:02:20.868Z,41.50
2022-12-11T19:04:47.277Z,38.03
2022-12-11T19:07:13.582Z,38.20
2022-12-11T19:09:43.498Z,42.83
2022-12-11T19:12:12.677Z,40.43
2022-12-11T19:14:39.551Z,42.97
2022-12-11T19:17:05.882Z,39.70
2022-12-11T19:19:32.284Z,37.03
2022-12-11T19:21:58.676Z,40.33
2022-12-11T19:24:25.539Z,40.17
2022-12-11T19:26:52.251Z,38.27
2022-12-11T19:29:28.072Z,41.87
2022-12-11T19:31:58.020Z,41.03
2022-12-11T19:34:25.402Z,38.80
2022-12-11T19:36:51.860Z,39.67
2022-12-11T19:39:19.580Z,39.23
2022-12-11T19:41:46.235Z,41.63
2022-12-11T19:44:12.636Z,44.37
2022-12-11T19:46:39.648Z,41.30
2022-12-11T19:49:06.205Z,41.27
2022-12-11T19:51:36.582Z,40.93
2022-12-11T19:54:04.389Z,42.70
2022-12-11T19:56:31.968Z,40.77
2022-12-11T19:59:00.533Z,40.60
2022-12-11T20:01:30.867Z,38.40
2022-12-11T20:04:00.305Z,41.00
2022-12-11T20:06:28.463Z,38.13
2022-12-11T20:08:54.883Z,40.77
2022-12-11T20:11:21.401Z,43.80
2022-12-11T20:13:48.776Z,39.13
2022-12-11T20:16:16.484Z,38.57
2022-12-11T20:18:43.081Z,36.63
2022-12-11T20:21:13.182Z,35.10
2022-12-11T20:23:39.698Z,37.73
2022-12-11T20:26:14.525Z,41.93
2022-12-11T20:28:41.496Z,40.30
2022-12-11T20:31:16.391Z,40.30
2022-12-11T20:33:46.564Z,37.80
2022-12-11T20:36:15.565Z,37.77
2022-12-11T20:38:42.021Z,41.90
2022-12-11T20:41:11.054Z,39.07
2022-12-11T20:43:38.799Z,42.53
2022-12-11T20:46:06.760Z,36.53
2022-12-11T20:48:33.752Z,42.07
2022-12-11T20:51:01.768Z,36.47
2022-12-11T20:53:31.015Z,38.03
2022-12-11T20:55:57.411Z,39.57
2022-12-11T20:58:23.794Z,42.43
2022-12-11T21:00:50.281Z,39.47
2022-12-11T21:03:16.984Z,36.70
2022-12-11T21:05:45.004Z,38.47
2022-12-11T21:08:12.208Z,32.23
2022-12-11T21:10:43.030Z,37.10
2022-12-11T21:13:09.442Z,36.60
2022-12-11T21:15:39.935Z,36.07
2022-12-11T21:18:07.725Z,39.63
2022-12-11T21:20:35.511Z,39.63
2022-12-11T21:23:02.842Z,39.23
2022-12-11T21:25:29.446Z,39.20
2022-12-11T21:27:55.859Z,47.10
2022-12-11T21:30:22.163Z,39.20
2022-12-11T21:32:48.581Z,43.57
2022-12-11T21:35:15.038Z,38.93
2022-12-11T21:37:41.772Z,38.27
2022-12-11T21:40:09.223Z,39.23
2022-12-11T21:42:35.564Z,38.57
2022-12-11T21:47:49.578Z,38.03
2022-12-11T21:50:16.608Z,44.17
2022-12-11T21:52:42.954Z,40.93
2022-12-11T21:55:11.998Z,42.43
2022-12-11T21:57:38.494Z,38.33
2022-12-11T22:00:05.773Z,39.63
2022-12-11T22:02:35.993Z,45.93
2022-12-11T22:05:05.994Z,42.30
2022-12-11T22:07:32.337Z,36.17
2022-12-11T22:09:58.651Z,40.03
2022-12-11T22:12:28.232Z,39.40
2022-12-11T22:14:54.582Z,40.40
2022-12-11T22:17:21.141Z,45.10
2022-12-11T22:19:47.562Z,39.97
2022-12-11T22:22:14.036Z,43.47
2022-12-11T22:24:40.955Z,43.67
2022-12-11T22:27:07.405Z,38.57
2022-12-11T22:29:34.790Z,42.73
2022-12-11T22:32:01.466Z,42.70
2022-12-11T22:34:27.741Z,40.07
2022-12-11T22:36:54.111Z,40.33
2022-12-11T22:39:20.547Z,42.90
2022-12-11T22:41:46.928Z,40.80
2022-12-11T22:44:16.992Z,44.20
2022-12-11T22:46:49.488Z,42.43
2022-12-11T22:49:16.558Z,38.10
2022-12-11T22:51:42.837Z,40.53
2022-12-11T22:54:09.402Z,39.30
2022-12-11T22:56:35.705Z,40.87
2022-12-11T22:59:02.286Z,40.73
2022-12-11T23:01:28.927Z,43.67
2022-12-11T23:03:55.267Z,40.87
2022-12-11T23:06:24.590Z,36.47
2022-12-11T23:08:52.760Z,45.63
2022-12-11T23:11:31.905Z,39.33
2022-12-11T23:13:58.321Z,37.40
2022-12-11T23:16:25.785Z,41.80
2022-12-11T23:18:53.042Z,40.80
2022-12-11T23:21:20.003Z,39.37
2022-12-11T23:23:46.375Z,39.73
2022-12-11T23:26:13.484Z,41.13
2022-12-11T23:28:41.313Z,37.57
2022-12-11T23:31:08.795Z,43.87
2022-12-11T23:33:35.207Z,39.77
2022-12-11T23:36:02.294Z,37.67
2022-12-11T23:38:28.952Z,37.70
2022-12-11T23:40:55.460Z,37.60
2022-12-11T23:43:22.278Z,43.50
2022-12-11T23:45:48.984Z,40.77
2022-12-11T23:48:15.565Z,40.43
2022-12-11T23:50:42.551Z,38.73
2022-12-11T23:53:09.311Z,41.30
2022-12-11T23:55:38.046Z,43.77
2022-12-11T23:58:04.378Z,40.70
